Time;durP1;ratioP1;P1;durP2;ratioP2;P2;SDS_P1;SDS_P2;PMS_P1;PMS_P2;Temp;Humidity;BMP_temperature;BMP_pressure;BME280_temperature;BME280_humidity;BME280_pressure;Samples;Min_cycle;Max_cycle;Signal;HPM_P1;HPM_P2
2023/01/29 00:02:03;;;;;;;0.30;0.30;;;;;;;11.74;49.82;103019.63;4989615;28;20108;-65
2023/01/29 00:04:29;;;;;;;0.30;0.30;;;;;;;11.90;49.33;103008.72;4990399;28;20046;-65
2023/01/29 00:06:54;;;;;;;0.20;0.20;;;;;;;11.70;49.79;103010.22;4991373;28;20042;-64
2023/01/29 00:09:20;;;;;;;0.20;0.20;;;;;;;10.62;52.39;103003.03;4990565;28;20043;-64
2023/01/29 00:11:45;;;;;;;0.20;0.20;;;;;;;10.85;52.60;103003.94;4990334;28;20459;-65
2023/01/29 00:14:11;;;;;;;0.28;0.28;;;;;;;11.06;51.76;102998.84;4990387;28;20045;-65
2023/01/29 00:16:36;;;;;;;0.40;0.40;;;;;;;10.56;53.07;102993.81;4990253;28;20121;-67
2023/01/29 00:19:02;;;;;;;0.30;0.30;;;;;;;11.17;51.68;102993.03;4992545;28;20104;-66
2023/01/29 00:21:29;;;;;;;0.20;0.20;;;;;;;10.70;53.02;102989.56;4993813;28;20129;-66
2023/01/29 00:23:55;;;;;;;0.30;0.30;;;;;;;10.51;53.93;102984.59;4992627;28;20460;-64
2023/01/29 00:26:21;;;;;;;0.28;0.28;;;;;;;10.82;53.04;102976.56;4994107;28;20126;-64
2023/01/29 00:28:47;;;;;;;0.30;0.30;;;;;;;10.55;53.75;102970.59;4993781;28;20061;-64
2023/01/29 00:31:15;;;;;;;0.20;0.20;;;;;;;10.52;53.82;102980.88;4993815;28;20040;-65
2023/01/29 00:33:41;;;;;;;0.10;0.10;;;;;;;10.53;53.81;102974.50;4994418;28;20117;-65
2023/01/29 00:36:09;;;;;;;0.30;0.30;;;;;;;10.48;53.96;102977.69;4993606;28;20487;-64
2023/01/29 00:38:36;;;;;;;0.32;0.32;;;;;;;9.80;56.07;102983.63;4996432;28;20094;-66
2023/01/29 00:46:34;;;;;;;0.25;0.25;;;;;;;9.84;56.21;102979.59;4993385;28;20044;-65
2023/01/29 00:49:01;;;;;;;0.20;0.20;;;;;;;9.83;56.19;102981.44;4993574;28;20024;-65
2023/01/29 00:51:27;;;;;;;0.20;0.20;;;;;;;9.98;55.93;102976.25;4993408;28;20121;-65
2023/01/29 00:53:57;;;;;;;0.20;0.20;;;;;;;9.94;55.86;102985.66;4993347;28;20045;-65
2023/01/29 00:56:25;;;;;;;0.25;0.25;;;;;;;9.63;57.12;102970.19;4993274;28;20041;-66
2023/01/29 00:58:51;;;;;;;0.30;0.30;;;;;;;10.37;55.57;102967.31;4993165;28;20050;-64
2023/01/29 01:03:04;;;;;;;0.30;0.30;;;;;;;10.08;55.83;102974.22;4992144;28;20034;-66
2023/01/29 01:04:03;;;;;;;0.30;0.30;;;;;;;9.56;57.95;102962.97;4993344;28;20112;-65
2023/01/29 01:06:28;;;;;;;0.28;0.28;;;;;;;9.59;57.59;102960.78;4993231;28;20043;-65
2023/01/29 01:11:37;;;;;;;0.30;0.30;;;;;;;10.26;55.83;102950.72;4993162;28;20065;-64
2023/01/29 01:14:03;;;;;;;0.32;0.32;;;;;;;9.79;57.10;102952.44;4992993;28;20046;-65
2023/01/29 01:16:28;;;;;;;0.28;0.28;;;;;;;9.83;56.66;102956.47;4990369;28;20573;-63
2023/01/29 01:18:54;;;;;;;0.25;0.25;;;;;;;9.92;56.30;102966.19;4984153;28;20446;-65
2023/01/29 01:21:19;;;;;;;0.40;0.40;;;;;;;10.47;54.64;102959.06;4993028;28;20039;-64
2023/01/29 01:23:45;;;;;;;0.30;0.30;;;;;;;10.01;56.64;102966.00;4991190;28;20043;-67
2023/01/29 01:26:10;;;;;;;0.20;0.20;;;;;;;9.98;56.17;102963.66;4991432;28;20070;-66
2023/01/29 01:28:36;;;;;;;0.30;0.30;;;;;;;10.20;56.51;102962.16;4992801;28;20049;-64
2023/01/29 01:31:09;;;;;;;0.25;0.25;;;;;;;10.28;56.30;102964.81;4992346;28;20034;-65
2023/01/29 01:33:36;;;;;;;0.30;0.30;;;;;;;10.18;55.90;102985.66;4996371;28;20293;-64
2023/01/29 01:36:01;;;;;;;0.20;0.20;;;;;;;9.94;56.20;102983.81;4992418;28;20299;-67
2023/01/29 01:38:27;;;;;;;0.20;0.20;;;;;;;10.28;55.81;102980.94;4992528;28;20465;-65
2023/01/29 01:40:52;;;;;;;0.30;0.30;;;;;;;10.42;55.73;102974.84;4992811;28;20546;-64
2023/01/29 01:43:18;;;;;;;0.25;0.25;;;;;;;9.45;58.48;102972.19;4992636;28;20030;-66
2023/01/29 01:45:45;;;;;;;0.20;0.20;;;;;;;10.24;55.98;102977.75;4992456;28;20034;-66
2023/01/29 01:48:25;;;;;;;0.20;0.20;;;;;;;10.56;55.30;102974.97;4992007;28;20027;-65
2023/01/29 01:50:59;;;;;;;0.20;0.20;;;;;;;10.92;53.87;102969.13;4990754;28;20042;-66
2023/01/29 01:53:37;;;;;;;0.20;0.20;;;;;;;10.67;54.68;102973.78;4992431;28;20045;-65
2023/01/29 01:56:08;;;;;;;0.25;0.25;;;;;;;10.19;55.86;102981.94;4968314;28;20499;-66
2023/01/29 01:58:41;;;;;;;0.30;0.30;;;;;;;10.21;55.41;102983.47;4976907;28;20621;-66
2023/01/29 02:01:08;;;;;;;0.30;0.30;;;;;;;9.93;56.63;102979.44;4984496;28;20077;-65
2023/01/29 02:09:51;;;;;;;0.20;0.20;;;;;;;10.80;54.35;102982.13;4991973;28;20173;-65
2023/01/29 02:12:18;;;;;;;0.30;0.30;;;;;;;11.46;52.37;102978.88;4977559;28;20038;-65
2023/01/29 02:14:44;;;;;;;0.40;0.40;;;;;;;10.21;54.90;102988.00;4992028;28;20100;-65
2023/01/29 02:17:15;;;;;;;0.30;0.30;;;;;;;10.58;54.12;102993.63;4991394;28;20038;-63
2023/01/29 02:19:58;;;;;;;0.40;0.40;;;;;;;10.71;54.84;102991.25;4991562;28;20038;-65
2023/01/29 02:22:55;;;;;;;0.20;0.20;;;;;;;10.18;55.92;102986.47;4991409;28;20084;-64
2023/01/29 02:25:39;;;;;;;0.40;0.40;;;;;;;10.48;55.74;102988.44;4991913;28;20304;-65
2023/01/29 02:28:23;;;;;;;0.20;0.20;;;;;;;10.69;54.78;102992.44;4976134;28;20490;-65
2023/01/29 02:31:24;;;;;;;0.28;0.28;;;;;;;10.40;56.17;102998.38;4993508;28;20219;-66
2023/01/29 02:34:17;;;;;;;0.20;0.20;;;;;;;10.42;55.00;102994.50;4983969;28;20046;-65
2023/01/29 02:37:08;;;;;;;0.30;0.30;;;;;;;10.12;56.40;102991.72;4978276;28;20042;-65
2023/01/29 02:40:14;;;;;;;0.20;0.20;;;;;;;10.14;56.17;102995.88;4973378;28;20058;-65
2023/01/29 02:42:55;;;;;;;0.20;0.20;;;;;;;10.23;55.98;102999.41;4930019;29;20059;-65
2023/01/29 02:45:30;;;;;;;0.20;0.20;;;;;;;10.63;54.87;102986.72;4930892;29;20551;-65
2023/01/29 02:47:57;;;;;;;0.38;0.38;;;;;;;9.88;57.50;102992.53;4930570;29;20032;-64
2023/01/29 02:50:37;;;;;;;0.28;0.28;;;;;;;9.83;57.81;102989.50;4930403;29;20095;-64
2023/01/29 02:53:17;;;;;;;0.20;0.20;;;;;;;10.09;57.20;102987.47;4930612;29;20047;-67
2023/01/29 02:56:02;;;;;;;0.30;0.30;;;;;;;10.15;56.03;102991.38;4930720;29;20052;-65
2023/01/29 02:58:38;;;;;;;0.20;0.20;;;;;;;10.61;55.01;102983.34;4930645;29;20512;-66
2023/01/29 03:01:11;;;;;;;0.30;0.30;;;;;;;10.15;56.18;102992.22;4930574;29;20068;-65
2023/01/29 03:03:41;;;;;;;0.30;0.30;;;;;;;10.35;55.66;102973.88;4930728;29;20051;-65
2023/01/29 03:06:21;;;;;;;0.30;0.30;;;;;;;9.89;56.72;102969.19;4915360;29;20177;-65
2023/01/29 03:08:57;;;;;;;0.20;0.20;;;;;;;9.46;58.05;102970.34;4930527;29;20053;-65
2023/01/29 03:11:25;;;;;;;0.30;0.30;;;;;;;10.02;56.58;102956.09;4944472;28;20039;-64
2023/01/29 03:14:07;;;;;;;0.20;0.20;;;;;;;10.63;54.89;102948.25;4949386;29;20138;-64
2023/01/29 03:16:52;;;;;;;0.30;0.30;;;;;;;10.16;56.52;102950.88;4946432;29;20080;-66
2023/01/29 03:19:37;;;;;;;0.38;0.38;;;;;;;10.02;56.98;102940.84;4967554;28;20589;-66
2023/01/29 03:22:07;;;;;;;0.20;0.20;;;;;;;10.11;56.72;102941.66;4975369;28;20042;-64
2023/01/29 03:33:06;;;;;;;0.20;0.20;;;;;;;9.95;57.12;102918.34;4990601;28;20128;-65
2023/01/29 03:35:38;;;;;;;0.20;0.20;;;;;;;9.52;58.28;102921.38;4986934;28;20035;-64
2023/01/29 03:38:08;;;;;;;0.28;0.28;;;;;;;9.71;57.40;102912.97;4990894;28;20495;-66
2023/01/29 03:41:03;;;;;;;0.20;0.20;;;;;;;9.63;57.95;102902.28;4990814;28;20061;-64
2023/01/29 03:43:28;;;;;;;0.28;0.28;;;;;;;9.45;57.00;102907.78;4990666;28;20041;-64
2023/01/29 03:46:17;;;;;;;0.30;0.30;;;;;;;9.98;56.93;102901.03;4991268;28;20030;-65
2023/01/29 03:49:00;;;;;;;0.20;0.20;;;;;;;10.06;56.85;102892.97;4990654;28;20038;-65
2023/01/29 03:51:45;;;;;;;0.30;0.30;;;;;;;9.64;57.56;102895.88;4990511;28;20046;-64
2023/01/29 03:54:25;;;;;;;0.40;0.40;;;;;;;9.60;56.97;102876.59;4977657;28;20038;-66
2023/01/29 03:57:14;;;;;;;0.20;0.20;;;;;;;9.41;58.34;102889.53;4994211;28;20081;-66
2023/01/29 03:59:42;;;;;;;0.30;0.30;;;;;;;9.39;58.71;102884.34;4994362;28;20069;-65
2023/01/29 04:02:20;;;;;;;0.20;0.20;;;;;;;9.36;58.78;102879.28;4994154;28;20124;-66
2023/01/29 04:04:50;;;;;;;0.30;0.30;;;;;;;9.37;58.58;102880.13;4993862;28;20069;-64
2023/01/29 04:07:23;;;;;;;0.20;0.20;;;;;;;9.25;58.34;102885.00;4994178;28;20030;-65
2023/01/29 04:09:58;;;;;;;0.22;0.22;;;;;;;9.69;58.05;102882.78;4994424;28;20045;-66
2023/01/29 04:12:37;;;;;;;0.20;0.20;;;;;;;9.50;57.66;102877.78;4994217;28;20232;-66
2023/01/29 04:15:08;;;;;;;0.30;0.30;;;;;;;9.43;58.12;102888.34;4994008;28;20050;-64
2023/01/29 04:17:38;;;;;;;0.20;0.20;;;;;;;9.91;56.63;102882.09;4982656;28;20049;-66
2023/01/29 04:20:04;;;;;;;0.20;0.20;;;;;;;9.07;59.57;102889.66;4978013;28;20521;-64
2023/01/29 04:22:35;;;;;;;0.20;0.20;;;;;;;9.33;58.95;102892.19;4998002;28;20034;-64
2023/01/29 04:25:07;;;;;;;0.20;0.20;;;;;;;9.03;59.68;102882.94;5017412;28;20038;-64
2023/01/29 04:27:43;;;;;;;0.20;0.20;;;;;;;9.09;58.97;102884.13;4994130;28;20042;-65
2023/01/29 04:30:20;;;;;;;0.20;0.20;;;;;;;9.81;58.00;102873.38;4978538;28;20390;-65
2023/01/29 04:33:01;;;;;;;0.35;0.35;;;;;;;9.56;58.82;102869.88;4993491;28;20038;-65
2023/01/29 04:35:29;;;;;;;;;;;;;;;9.65;58.02;102871.56;4994338;28;20504;-64
2023/01/29 04:38:05;;;;;;;0.25;0.25;;;;;;;9.20;59.43;102881.13;4993251;28;19925;-67
2023/01/29 04:40:42;;;;;;;0.20;0.20;;;;;;;9.45;58.49;102867.53;4993784;28;20066;-65
2023/01/29 04:43:20;;;;;;;0.30;0.30;;;;;;;9.43;58.73;102874.94;4992238;28;20057;-64
2023/01/29 04:45:58;;;;;;;0.20;0.20;;;;;;;9.56;58.12;102869.88;4994151;28;20112;-64
2023/01/29 04:48:29;;;;;;;0.30;0.30;;;;;;;9.55;58.38;102873.56;4993231;28;20047;-64
2023/01/29 04:51:09;;;;;;;0.20;0.20;;;;;;;9.22;59.39;102866.53;4993532;28;20037;-65
2023/01/29 04:53:35;;;;;;;0.20;0.20;;;;;;;9.52;58.24;102868.56;4993536;28;20382;-65
2023/01/29 04:56:13;;;;;;;0.30;0.30;;;;;;;10.27;56.29;102859.19;4993239;28;20113;-65
2023/01/29 04:59:08;;;;;;;0.20;0.20;;;;;;;9.84;57.52;102856.09;4993342;28;20045;-64
2023/01/29 05:01:37;;;;;;;0.20;0.20;;;;;;;9.43;58.48;102858.84;4949775;28;20035;-65
2023/01/29 05:04:09;;;;;;;0.30;0.30;;;;;;;9.83;57.63;102857.13;4950130;28;20208;-66
2023/01/29 05:06:36;;;;;;;0.30;0.30;;;;;;;9.34;58.69;102867.03;4950463;29;20511;-66
2023/01/29 05:09:02;;;;;;;0.30;0.30;;;;;;;9.62;57.85;102863.84;4951188;28;20042;-65
2023/01/29 05:11:31;;;;;;;0.32;0.32;;;;;;;9.61;58.05;102870.22;4950799;29;20043;-67
2023/01/29 05:13:57;;;;;;;0.32;0.32;;;;;;;9.56;57.96;102879.78;4950819;28;20047;-66
2023/01/29 05:16:27;;;;;;;0.17;0.17;;;;;;;9.50;58.11;102883.97;4951276;29;20122;-65
2023/01/29 05:18:52;;;;;;;0.40;0.40;;;;;;;9.66;58.11;102880.44;4948550;28;20116;-65
2023/01/29 05:21:19;;;;;;;0.30;0.30;;;;;;;9.07;59.31;102894.16;4957489;28;20039;-66
2023/01/29 05:23:52;;;;;;;0.20;0.20;;;;;;;9.77;57.32;102886.31;4951628;29;20039;-66
2023/01/29 05:29:04;;;;;;;0.20;0.20;;;;;;;10.02;56.89;102881.75;4951150;29;20098;-66
2023/01/29 05:31:29;;;;;;;0.28;0.28;;;;;;;9.80;57.42;102885.13;4951343;29;20074;-66
2023/01/29 05:33:55;;;;;;;0.25;0.25;;;;;;;9.66;57.48;102875.94;4951449;29;20047;-66
2023/01/29 05:36:20;;;;;;;0.30;0.30;;;;;;;9.37;58.24;102874.75;4951133;29;20543;-64
2023/01/29 05:38:45;;;;;;;0.25;0.25;;;;;;;9.01;59.96;102868.00;4973213;28;20047;-64
2023/01/29 05:41:11;;;;;;;0.20;0.20;;;;;;;9.98;57.14;102858.91;4992603;28;20049;-66
2023/01/29 05:43:36;;;;;;;0.22;0.22;;;;;;;9.29;58.90;102853.28;4992564;28;20518;-65
2023/01/29 05:46:02;;;;;;;0.40;0.40;;;;;;;9.13;59.19;102854.13;4991458;28;20169;-64
2023/01/29 05:48:30;;;;;;;0.30;0.30;;;;;;;9.62;57.79;102852.25;4991699;28;20034;-65
2023/01/29 05:51:03;;;;;;;0.20;0.20;;;;;;;9.49;58.55;102846.59;4992299;28;20529;-66
2023/01/29 05:53:30;;;;;;;0.20;0.20;;;;;;;9.42;58.65;102834.84;4992205;28;20382;-67
2023/01/29 05:55:56;;;;;;;0.30;0.30;;;;;;;9.55;58.16;102827.94;4992325;28;20038;-66
2023/01/29 05:58:22;;;;;;;0.20;0.20;;;;;;;8.91;59.05;102830.63;4991944;28;20034;-65
2023/01/29 06:00:47;;;;;;;0.22;0.22;;;;;;;9.03;59.88;102828.47;4992470;28;20042;-68
2023/01/29 06:03:13;;;;;;;0.30;0.30;;;;;;;9.67;58.28;102821.22;4992033;28;20047;-66
2023/01/29 06:05:39;;;;;;;0.20;0.20;;;;;;;9.15;59.45;102819.94;4991705;28;20050;-66
2023/01/29 06:08:05;;;;;;;0.20;0.20;;;;;;;9.44;58.28;102817.56;4991911;28;20038;-65
2023/01/29 06:10:30;;;;;;;0.30;0.30;;;;;;;9.21;58.56;102819.25;4984505;28;20104;-64
2023/01/29 06:12:55;;;;;;;0.20;0.20;;;;;;;9.64;57.60;102810.84;4992397;28;20038;-65
2023/01/29 06:15:21;;;;;;;0.35;0.35;;;;;;;9.55;58.12;102822.56;4995790;28;20114;-66
2023/01/29 06:17:46;;;;;;;0.30;0.30;;;;;;;8.83;59.85;102817.22;4991265;28;20069;-65
2023/01/29 06:20:12;;;;;;;0.28;0.28;;;;;;;9.32;59.00;102812.69;4991744;28;20134;-66
2023/01/29 06:22:37;;;;;;;0.25;0.25;;;;;;;9.48;57.90;102807.31;4991628;28;20037;-64
2023/01/29 06:25:03;;;;;;;0.30;0.30;;;;;;;9.52;57.76;102809.50;4992089;28;20478;-65
2023/01/29 06:27:28;;;;;;;0.20;0.20;;;;;;;9.61;57.13;102808.47;4991441;28;20121;-65
2023/01/29 06:29:54;;;;;;;0.20;0.20;;;;;;;10.12;56.21;102812.53;4991591;28;20093;-65
2023/01/29 06:32:19;;;;;;;0.30;0.30;;;;;;;9.65;57.48;102806.31;4991419;28;20089;-67
2023/01/29 06:34:44;;;;;;;0.25;0.25;;;;;;;10.12;55.99;102804.47;4991647;28;20033;-66
2023/01/29 06:37:10;;;;;;;0.30;0.30;;;;;;;9.24;58.23;102805.50;4991485;28;20034;-65
2023/01/29 06:39:35;;;;;;;0.20;0.20;;;;;;;9.07;58.72;102806.53;4991839;28;20113;-65
2023/01/29 06:42:00;;;;;;;0.20;0.20;;;;;;;9.32;58.01;102802.81;4991068;28;20188;-65
2023/01/29 06:44:26;;;;;;;0.22;0.22;;;;;;;8.90;59.65;102810.22;4991342;28;20038;-64
2023/01/29 06:46:51;;;;;;;0.20;0.20;;;;;;;9.59;57.43;102802.44;4991417;28;20216;-65
2023/01/29 06:49:17;;;;;;;0.20;0.20;;;;;;;9.43;57.78;102804.31;4991157;28;20030;-66
2023/01/29 06:51:42;;;;;;;0.30;0.30;;;;;;;9.79;56.42;102797.53;4991504;28;20060;-67
2023/01/29 06:54:09;;;;;;;0.35;0.35;;;;;;;9.75;57.14;102797.03;4991117;28;20041;-65
2023/01/29 06:56:34;;;;;;;0.20;0.20;;;;;;;9.44;57.04;102800.63;4991051;28;20038;-65
2023/01/29 06:59:00;;;;;;;0.20;0.20;;;;;;;9.88;56.10;102788.44;4990990;28;20104;-65
2023/01/29 07:01:25;;;;;;;0.20;0.20;;;;;;;9.64;57.28;102781.31;4990440;28;20038;-65
2023/01/29 07:03:51;;;;;;;0.28;0.28;;;;;;;9.57;57.37;102793.72;4991247;28;20034;-65
2023/01/29 07:06:17;;;;;;;0.30;0.30;;;;;;;9.49;57.37;102807.16;4985523;28;20089;-63
2023/01/29 07:08:42;;;;;;;0.20;0.20;;;;;;;9.79;55.94;102802.91;4991032;28;20038;-65
2023/01/29 07:11:08;;;;;;;0.32;0.32;;;;;;;10.21;55.01;102787.34;4994252;28;20037;-66
2023/01/29 07:13:33;;;;;;;0.22;0.22;;;;;;;9.49;57.38;102798.28;4988609;28;20034;-66
2023/01/29 07:16:01;;;;;;;0.20;0.20;;;;;;;9.97;55.95;102792.78;4989844;28;20057;-65
2023/01/29 07:18:28;;;;;;;0.20;0.20;;;;;;;9.65;55.80;102807.13;4990207;28;20045;-66
2023/01/29 07:20:54;;;;;;;0.20;0.20;;;;;;;9.56;57.18;102807.31;4990539;28;20093;-67
2023/01/29 07:23:19;;;;;;;0.20;0.20;;;;;;;9.88;55.81;102795.66;4988651;28;20061;-66
2023/01/29 07:25:45;;;;;;;0.30;0.30;;;;;;;9.75;56.26;102788.13;4990670;28;20098;-65
2023/01/29 07:28:10;;;;;;;0.30;0.30;;;;;;;9.50;56.78;102779.31;4991158;28;20023;-65
2023/01/29 07:30:35;;;;;;;0.30;0.30;;;;;;;9.21;57.97;102787.06;4995052;28;20038;-65
2023/01/29 07:33:07;;;;;;;0.30;0.30;;;;;;;9.33;57.26;102780.38;4994292;28;20117;-66
2023/01/29 07:35:37;;;;;;;0.47;0.47;;;;;;;9.31;57.73;102781.53;4994346;28;20039;-65
2023/01/29 07:38:02;;;;;;;0.30;0.30;;;;;;;9.83;56.15;102780.06;4993962;28;20047;-63
2023/01/29 07:40:28;;;;;;;0.25;0.25;;;;;;;9.32;57.12;102785.88;4994156;28;20034;-65
2023/01/29 07:43:01;;;;;;;0.40;0.40;;;;;;;9.77;56.05;102781.59;4994674;28;20037;-66
2023/01/29 07:45:27;;;;;;;0.30;0.30;;;;;;;9.94;55.41;102776.19;4991860;28;20038;-66
2023/01/29 07:47:55;;;;;;;0.25;0.25;;;;;;;9.88;56.10;102769.66;4993786;28;20053;-65
2023/01/29 07:50:24;;;;;;;0.25;0.25;;;;;;;10.14;55.17;102764.03;4993939;28;20573;-65
2023/01/29 07:52:50;;;;;;;0.20;0.20;;;;;;;10.01;55.30;102766.41;4994021;28;20495;-66
2023/01/29 07:55:16;;;;;;;0.38;0.38;;;;;;;10.42;54.49;102763.38;4993772;28;20042;-65
2023/01/29 07:57:41;;;;;;;0.40;0.40;;;;;;;10.09;54.49;102755.63;4994170;28;20498;-65
2023/01/29 08:00:08;;;;;;;0.32;0.32;;;;;;;10.55;53.96;102752.03;4993813;28;20034;-66
2023/01/29 08:02:33;;;;;;;0.25;0.25;;;;;;;10.21;54.75;102752.41;4992784;28;20038;-65
2023/01/29 08:04:58;;;;;;;0.30;0.30;;;;;;;10.95;52.37;102749.03;4993950;28;20521;-67
2023/01/29 08:07:24;;;;;;;0.30;0.30;;;;;;;10.25;54.05;102752.88;4980241;28;20067;-67
2023/01/29 08:09:49;;;;;;;0.30;0.30;;;;;;;10.50;53.98;102740.97;4993201;28;20065;-67
2023/01/29 08:12:14;;;;;;;0.20;0.20;;;;;;;10.14;55.07;102742.56;4993934;28;20034;-65
2023/01/29 08:14:40;;;;;;;0.30;0.30;;;;;;;9.97;55.50;102733.69;4994176;28;20042;-65
2023/01/29 08:17:05;;;;;;;0.30;0.30;;;;;;;9.89;55.74;102743.63;4994145;28;20457;-67
2023/01/29 08:19:31;;;;;;;0.35;0.35;;;;;;;10.42;54.56;102749.09;4994049;28;20046;-64
2023/01/29 08:21:56;;;;;;;0.20;0.20;;;;;;;10.24;54.49;102746.66;4989031;28;20038;-66
2023/01/29 08:24:21;;;;;;;0.22;0.22;;;;;;;9.61;56.54;102743.25;4993588;28;20268;-66
2023/01/29 08:26:47;;;;;;;0.40;0.40;;;;;;;9.46;56.84;102744.94;4993403;28;20098;-67
2023/01/29 08:29:12;;;;;;;0.28;0.28;;;;;;;9.92;55.89;102746.81;4993288;28;20133;-66
2023/01/29 08:31:38;;;;;;;0.30;0.30;;;;;;;10.32;54.70;102745.78;4993200;28;20030;-65
2023/01/29 08:34:03;;;;;;;0.20;0.20;;;;;;;9.92;55.52;102743.28;4993577;28;20038;-65
2023/01/29 08:36:28;;;;;;;0.20;0.20;;;;;;;10.10;55.36;102739.34;4993350;28;20054;-65
2023/01/29 08:38:54;;;;;;;0.22;0.22;;;;;;;10.02;55.59;102741.22;4989654;28;20121;-66
2023/01/29 08:41:19;;;;;;;0.20;0.20;;;;;;;9.98;55.19;102740.75;4988079;28;20076;-65
2023/01/29 08:43:45;;;;;;;0.20;0.20;;;;;;;10.26;54.23;102744.66;4993607;28;20038;-65
2023/01/29 08:46:11;;;;;;;0.20;0.20;;;;;;;9.74;56.00;102738.16;4993497;28;20022;-65
2023/01/29 08:48:36;;;;;;;0.40;0.40;;;;;;;10.08;54.66;102737.84;4993470;28;20161;-70
2023/01/29 08:51:03;;;;;;;0.30;0.30;;;;;;;10.84;53.38;102724.41;4995048;28;20042;-70
2023/01/29 08:53:28;;;;;;;0.20;0.20;;;;;;;10.37;53.91;102719.22;4995279;28;20069;-71
2023/01/29 08:55:54;;;;;;;0.40;0.40;;;;;;;9.65;55.66;102723.09;4994374;28;20434;-71
2023/01/29 08:58:19;;;;;;;0.30;0.30;;;;;;;9.90;55.42;102721.13;4994071;28;20360;-70
2023/01/29 09:00:45;;;;;;;0.40;0.40;;;;;;;10.38;53.44;102713.66;4994636;28;20042;-70
2023/01/29 09:03:25;;;;;;;0.13;0.13;;;;;;;9.86;56.05;102717.13;4993853;28;20490;-70
2023/01/29 09:05:51;;;;;;;0.47;0.47;;;;;;;9.69;56.26;102716.34;4977993;28;20043;-71
2023/01/29 09:08:16;;;;;;;0.30;0.30;;;;;;;9.54;55.44;102720.78;4993837;28;20050;-70
2023/01/29 09:10:41;;;;;;;0.30;0.30;;;;;;;9.83;55.47;102721.00;4993650;28;20042;-70
2023/01/29 09:13:07;;;;;;;0.30;0.30;;;;;;;9.40;56.61;102725.00;4994092;28;20043;-70
2023/01/29 09:15:32;;;;;;;0.30;0.30;;;;;;;10.00;55.31;102721.78;4988856;28;20105;-71
2023/01/29 09:18:02;;;;;;;0.20;0.20;;;;;;;9.32;57.12;102725.03;4986356;28;20104;-70
2023/01/29 09:20:28;;;;;;;0.20;0.20;;;;;;;9.48;57.26;102730.34;4987920;28;20038;-71
2023/01/29 09:22:55;;;;;;;0.20;0.20;;;;;;;8.94;58.39;102728.44;4987346;28;20467;-70
2023/01/29 09:25:21;;;;;;;0.25;0.25;;;;;;;8.84;58.61;102730.44;4984598;28;20097;-69
2023/01/29 09:27:46;;;;;;;0.30;0.30;;;;;;;9.89;55.99;102727.50;4990343;28;20467;-71
2023/01/29 09:30:12;;;;;;;0.20;0.20;;;;;;;9.95;55.97;102732.19;4989666;28;20132;-69
2023/01/29 09:32:37;;;;;;;0.20;0.20;;;;;;;9.24;57.47;102726.88;4988675;28;20062;-70
2023/01/29 09:35:03;;;;;;;0.30;0.30;;;;;;;9.75;57.08;102726.38;4983476;28;20523;-69
2023/01/29 09:37:28;;;;;;;0.30;0.30;;;;;;;9.17;58.22;102724.03;4984121;28;20464;-70
2023/01/29 09:39:54;;;;;;;0.30;0.30;;;;;;;9.54;57.32;102724.28;4979256;28;20265;-71
2023/01/29 09:42:42;;;;;;;0.20;0.20;;;;;;;9.65;56.68;102715.03;4988948;28;20034;-72
2023/01/29 09:45:19;;;;;;;0.25;0.25;;;;;;;10.31;55.50;102726.16;4989206;28;20039;-70
2023/01/29 09:47:44;;;;;;;0.20;0.20;;;;;;;9.36;57.57;102726.34;4983490;28;20038;-71
2023/01/29 09:50:22;;;;;;;0.20;0.20;;;;;;;9.95;56.30;102724.13;4990383;28;20410;-69
2023/01/29 09:53:13;;;;;;;0.20;0.20;;;;;;;9.66;57.18;102716.69;4983193;28;20038;-71
2023/01/29 09:55:48;;;;;;;0.40;0.40;;;;;;;10.25;55.11;102723.34;4987123;28;20117;-72
2023/01/29 09:58:32;;;;;;;0.28;0.28;;;;;;;10.06;56.26;102721.91;4987934;28;20057;-70
2023/01/29 10:01:12;;;;;;;0.30;0.30;;;;;;;9.54;56.79;102713.56;4987952;28;20026;-70
2023/01/29 10:03:51;;;;;;;0.30;0.30;;;;;;;9.26;58.18;102706.91;4982523;28;20074;-69
2023/01/29 10:06:30;;;;;;;0.25;0.25;;;;;;;9.65;57.51;102701.63;4997139;28;20046;-71
2023/01/29 10:09:24;;;;;;;0.25;0.25;;;;;;;9.95;56.52;102700.81;4982492;28;20129;-69
2023/01/29 10:12:27;;;;;;;0.40;0.40;;;;;;;10.92;53.67;102703.69;4979513;28;20134;-69
2023/01/29 10:15:12;;;;;;;0.40;0.40;;;;;;;10.34;55.17;102695.38;4961842;28;20118;-69
2023/01/29 10:17:51;;;;;;;0.20;0.20;;;;;;;10.59;54.54;102675.41;4966058;28;20079;-71
2023/01/29 10:20:40;;;;;;;0.28;0.28;;;;;;;9.85;56.62;102686.75;4968483;28;20069;-69
2023/01/29 10:23:25;;;;;;;0.20;0.20;;;;;;;9.88;57.21;102682.88;4968257;28;20061;-69
2023/01/29 10:25:52;;;;;;;0.30;0.30;;;;;;;9.60;57.62;102686.03;4966715;28;20045;-70
2023/01/29 10:28:30;;;;;;;0.45;0.45;;;;;;;9.12;59.46;102694.19;4969225;28;20033;-70
2023/01/29 10:31:12;;;;;;;0.30;0.30;;;;;;;9.96;56.92;102680.16;4967794;28;20558;-69
2023/01/29 10:33:37;;;;;;;0.20;0.20;;;;;;;9.20;59.19;102677.28;4952154;28;20093;-68
2023/01/29 10:36:09;;;;;;;0.32;0.32;;;;;;;10.25;56.46;102664.22;4969567;28;20163;-69
2023/01/29 10:38:50;;;;;;;0.28;0.28;;;;;;;10.06;56.16;102695.06;4967117;28;20411;-69
2023/01/29 10:41:37;;;;;;;0.30;0.30;;;;;;;9.68;58.68;102653.78;4965918;28;20577;-70
2023/01/29 10:44:40;;;;;;;0.20;0.20;;;;;;;10.13;56.84;102671.88;4968523;28;20043;-69
2023/01/29 10:47:47;;;;;;;0.20;0.20;;;;;;;9.62;58.74;102656.31;4968203;28;20031;-70
2023/01/29 10:50:19;;;;;;;0.28;0.28;;;;;;;9.51;57.76;102654.03;4984770;28;20529;-70
2023/01/29 10:53:22;;;;;;;0.20;0.20;;;;;;;10.47;55.38;102655.34;4990120;28;20034;-69
2023/01/29 10:56:13;;;;;;;0.35;0.35;;;;;;;10.00;57.52;102642.03;4991033;28;20561;-71
2023/01/29 10:58:50;;;;;;;0.40;0.40;;;;;;;10.60;55.46;102640.28;4987262;28;20050;-71
2023/01/29 11:01:16;;;;;;;0.30;0.30;;;;;;;9.99;56.78;102643.03;4989382;28;20045;-69
2023/01/29 11:03:41;;;;;;;0.20;0.20;;;;;;;9.88;56.94;102634.56;4990037;28;20486;-71
2023/01/29 11:06:35;;;;;;;0.20;0.20;;;;;;;10.48;55.93;102633.66;4989549;28;20065;-70
2023/01/29 11:09:28;;;;;;;0.20;0.20;;;;;;;9.85;57.05;102634.91;4987310;28;20057;-69
2023/01/29 11:11:58;;;;;;;0.20;0.20;;;;;;;9.57;58.13;102626.50;4983940;28;20035;-69
2023/01/29 11:14:28;;;;;;;0.30;0.30;;;;;;;9.54;58.43;102622.31;4985342;28;20542;-69
2023/01/29 11:16:54;;;;;;;0.20;0.20;;;;;;;9.84;58.04;102628.72;4985903;28;20065;-70
2023/01/29 11:19:39;;;;;;;0.30;0.30;;;;;;;9.83;57.41;102618.97;4986534;28;20402;-69
2023/01/29 11:22:15;;;;;;;0.20;0.20;;;;;;;10.09;57.26;102624.84;4986004;28;20406;-68
2023/01/29 11:24:40;;;;;;;0.30;0.30;;;;;;;10.30;56.41;102618.88;4987538;28;20026;-69
2023/01/29 11:27:24;;;;;;;0.28;0.28;;;;;;;10.10;57.31;102620.34;4987812;28;20031;-70
2023/01/29 11:29:51;;;;;;;0.30;0.30;;;;;;;10.59;55.22;102616.25;4981993;28;20039;-71
2023/01/29 11:32:25;;;;;;;0.25;0.25;;;;;;;10.29;56.71;102617.19;4987484;28;20388;-69
2023/01/29 11:35:04;;;;;;;0.30;0.30;;;;;;;9.75;58.59;102610.94;4987917;28;20035;-69
2023/01/29 11:37:41;;;;;;;0.20;0.20;;;;;;;9.62;59.10;102598.13;4987429;28;20046;-68
2023/01/29 11:40:22;;;;;;;0.30;0.30;;;;;;;9.44;59.31;102610.97;4985848;28;20141;-66
2023/01/29 11:42:48;;;;;;;0.32;0.32;;;;;;;9.63;58.53;102602.47;4985226;28;20426;-64
2023/01/29 11:45:28;;;;;;;0.30;0.30;;;;;;;10.21;57.94;102599.28;4986849;28;20050;-66
2023/01/29 11:47:55;;;;;;;0.20;0.20;;;;;;;10.07;58.03;102585.75;4985364;28;20862;-66
2023/01/29 11:50:26;;;;;;;0.20;0.20;;;;;;;9.21;61.12;102579.69;4985037;28;20069;-65
2023/01/29 11:52:52;;;;;;;;;;;;;;;9.80;59.98;102583.59;4983848;28;20057;-65
2023/01/29 11:55:22;;;;;;;0.20;0.20;;;;;;;8.97;62.76;102579.78;4985172;28;19910;-65
2023/01/29 11:57:51;;;;;;;0.28;0.28;;;;;;;8.98;63.49;102576.94;4986350;28;20046;-65
2023/01/29 12:00:22;;;;;;;0.20;0.20;;;;;;;9.19;62.91;102560.25;4984838;28;20034;-65
2023/01/29 12:03:10;;;;;;;0.20;0.20;;;;;;;9.02;63.19;102562.16;4985902;28;20049;-67
2023/01/29 12:05:37;;;;;;;0.30;0.30;;;;;;;9.59;61.61;102558.19;4984120;28;20046;-67
2023/01/29 12:08:03;;;;;;;0.22;0.22;;;;;;;9.16;62.20;102563.31;4985636;28;20030;-65
2023/01/29 12:10:33;;;;;;;0.20;0.20;;;;;;;9.40;61.49;102555.13;4982417;28;20045;-66
2023/01/29 12:13:18;;;;;;;0.20;0.20;;;;;;;9.80;60.80;102538.78;4982578;28;20042;-66
2023/01/29 12:15:45;;;;;;;0.30;0.30;;;;;;;9.42;62.33;102540.53;4989656;28;20532;-65
2023/01/29 12:18:41;;;;;;;0.25;0.25;;;;;;;9.59;62.27;102527.88;4991925;28;20101;-66